createdAt,value
2019-03-23T09:42:45.599Z,20.50
2019-03-23T09:45:14.278Z,19.27
2019-03-23T09:47:41.739Z,18.83
2019-03-23T09:50:09.898Z,19.13
2019-03-23T09:52:37.130Z,18.73
2019-03-23T09:55:07.097Z,18.40
2019-03-23T09:57:34.150Z,18.50
2019-03-23T10:00:01.547Z,17.80
2019-03-23T10:02:28.666Z,18.50
2019-03-23T10:04:56.155Z,18.20
2019-03-23T10:07:23.316Z,18.93
2019-03-23T10:09:50.617Z,19.27
2019-03-23T10:12:17.894Z,19.10
2019-03-23T10:14:45.114Z,19.77
2019-03-23T10:17:12.274Z,18.23
2019-03-23T10:19:39.516Z,18.50
2019-03-23T10:22:06.776Z,17.43
2019-03-23T10:24:33.981Z,18.50
2019-03-23T10:27:01.135Z,16.70
2019-03-23T10:29:28.340Z,16.93
2019-03-23T10:31:55.844Z,16.90
2019-03-23T10:34:23.127Z,17.70
2019-03-23T10:36:50.355Z,17.30
2019-03-23T10:39:17.555Z,17.43
2019-03-23T10:41:45.035Z,17.43
2019-03-23T10:44:12.216Z,17.03
2019-03-23T10:46:39.556Z,17.57
2019-03-23T10:49:07.244Z,17.53
2019-03-23T10:51:34.446Z,17.50
2019-03-23T10:54:01.624Z,18.20
2019-03-23T10:56:29.483Z,17.83
2019-03-23T10:58:56.656Z,17.30
2019-03-23T11:01:23.875Z,18.33
2019-03-23T11:03:51.012Z,18.50
2019-03-23T11:06:18.483Z,19.30
2019-03-23T11:08:45.598Z,17.63
2019-03-23T11:11:12.842Z,18.23
2019-03-23T11:13:40.017Z,18.50
2019-03-23T11:16:08.137Z,18.00
2019-03-23T11:18:35.412Z,17.53
2019-03-23T11:21:03.050Z,19.07
2019-03-23T11:23:30.213Z,17.40
2019-03-23T11:25:57.490Z,18.63
2019-03-23T11:28:24.630Z,18.23
2019-03-23T11:30:51.850Z,18.53
2019-03-23T11:33:19.028Z,17.67
2019-03-23T11:35:46.278Z,17.47
2019-03-23T11:38:13.456Z,19.00
2019-03-23T11:40:40.593Z,19.10
2019-03-23T11:43:07.843Z,18.83
2019-03-23T11:45:35.083Z,19.27
2019-03-23T11:48:02.503Z,19.77
2019-03-23T11:50:29.571Z,19.17
2019-03-23T11:52:56.825Z,18.37
2019-03-23T11:55:24.080Z,19.27
2019-03-23T11:57:51.147Z,18.80
2019-03-23T12:00:18.519Z,19.83
2019-03-23T12:02:46.414Z,19.83
2019-03-23T12:05:13.985Z,19.70
2019-03-23T12:07:41.329Z,20.33
2019-03-23T12:10:12.816Z,19.07
2019-03-23T12:12:40.121Z,18.63
2019-03-23T12:15:11.358Z,18.30
2019-03-23T12:17:38.606Z,20.37
2019-03-23T12:20:07.014Z,18.47
2019-03-23T12:22:34.235Z,19.70
2019-03-23T12:25:01.345Z,19.67
2019-03-23T12:27:28.538Z,19.47
2019-03-23T12:29:55.655Z,19.63
2019-03-23T12:32:22.882Z,19.80
2019-03-23T12:34:50.381Z,19.03
2019-03-23T12:37:17.921Z,20.07
2019-03-23T12:39:45.320Z,20.03
2019-03-23T12:42:12.624Z,19.20
2019-03-23T12:44:39.821Z,19.87
2019-03-23T12:47:07.024Z,19.97
2019-03-23T12:49:34.187Z,20.77
2019-03-23T12:52:01.684Z,20.07
2019-03-23T12:54:28.997Z,21.03
2019-03-23T12:56:56.109Z,20.73
2019-03-23T12:59:23.290Z,20.10
2019-03-23T13:01:50.874Z,21.10
2019-03-23T13:04:18.051Z,21.40
2019-03-23T13:06:45.268Z,20.63
2019-03-23T13:09:12.490Z,21.97
2019-03-23T13:11:39.630Z,21.20
2019-03-23T13:14:07.070Z,22.30
2019-03-23T13:16:34.154Z,21.80
2019-03-23T13:19:01.289Z,22.33
2019-03-23T13:21:28.487Z,21.83
2019-03-23T13:23:55.670Z,23.73
2019-03-23T13:26:22.789Z,21.77
2019-03-23T13:28:49.987Z,23.20
2019-03-23T13:31:17.091Z,23.30
2019-03-23T13:33:44.387Z,22.67
2019-03-23T13:36:11.486Z,22.70
2019-03-23T13:38:38.702Z,22.63
2019-03-23T13:41:05.788Z,23.03
2019-03-23T13:43:32.877Z,22.83
2019-03-23T13:45:59.984Z,23.80
2019-03-23T13:48:27.153Z,23.47
2019-03-23T13:50:54.696Z,23.20
2019-03-23T13:53:23.896Z,25.13
2019-03-23T13:55:51.104Z,25.67
2019-03-23T13:58:18.236Z,23.47
2019-03-23T14:00:45.455Z,25.50
2019-03-23T14:03:13.462Z,25.57
2019-03-23T14:05:40.771Z,24.73
2019-03-23T14:08:08.050Z,26.47
2019-03-23T14:10:35.515Z,25.37
2019-03-23T14:13:02.755Z,26.07
2019-03-23T14:15:29.872Z,26.90
2019-03-23T14:17:57.081Z,26.27
2019-03-23T14:20:24.208Z,26.17
2019-03-23T14:22:51.390Z,26.03
2019-03-23T14:25:18.535Z,27.03
2019-03-23T14:27:45.708Z,26.07
2019-03-23T14:30:16.823Z,27.13
2019-03-23T14:32:44.132Z,26.23
2019-03-23T14:35:11.515Z,27.00
2019-03-23T14:37:38.738Z,28.63
2019-03-23T14:40:06.339Z,27.73
2019-03-23T14:42:34.794Z,27.17
2019-03-23T14:45:02.697Z,27.53
2019-03-23T14:47:30.179Z,26.73
2019-03-23T14:49:57.405Z,27.87
2019-03-23T14:52:24.574Z,27.70
2019-03-23T14:54:51.741Z,27.17
2019-03-23T14:57:18.927Z,28.30
2019-03-23T14:59:46.118Z,27.43
2019-03-23T15:02:13.436Z,26.93
2019-03-23T15:04:40.722Z,26.60
2019-03-23T15:07:08.037Z,27.83
2019-03-23T15:09:35.417Z,27.47
2019-03-23T15:12:03.320Z,27.03
2019-03-23T15:14:30.795Z,27.33
2019-03-23T15:16:57.982Z,28.40
2019-03-23T15:19:25.091Z,27.10
2019-03-23T15:21:52.270Z,27.90
2019-03-23T15:24:19.402Z,27.17
2019-03-23T15:26:46.540Z,27.77
2019-03-23T15:29:13.758Z,28.40
2019-03-23T15:31:40.963Z,27.57
2019-03-23T15:34:08.619Z,27.83
2019-03-23T15:36:35.835Z,28.00
2019-03-23T15:39:06.709Z,27.23
2019-03-23T15:41:33.909Z,27.07
2019-03-23T15:44:01.096Z,26.87
2019-03-23T15:46:28.222Z,27.60
2019-03-23T15:48:55.402Z,26.43
2019-03-23T15:51:22.549Z,27.13
2019-03-23T15:53:49.653Z,27.80
2019-03-23T15:56:16.856Z,28.13
2019-03-23T15:58:43.974Z,27.27
2019-03-23T16:01:11.258Z,27.50
2019-03-23T16:03:38.730Z,28.47
2019-03-23T16:06:05.964Z,27.73
2019-03-23T16:08:33.182Z,27.27
2019-03-23T16:11:20.047Z,26.70
2019-03-23T16:13:47.261Z,27.03
2019-03-23T16:16:14.321Z,27.27
2019-03-23T16:18:41.506Z,27.87
2019-03-23T16:21:08.682Z,28.23
2019-03-23T16:23:35.898Z,27.43
2019-03-23T16:26:03.184Z,26.60
2019-03-23T16:28:30.497Z,26.93
2019-03-23T16:30:57.850Z,27.00
2019-03-23T16:33:25.095Z,26.60
2019-03-23T16:35:52.205Z,26.37
2019-03-23T16:38:19.386Z,27.53
2019-03-23T16:40:46.527Z,28.10
2019-03-23T16:43:13.802Z,26.40
2019-03-23T16:45:40.978Z,26.37
2019-03-23T16:48:08.116Z,26.93
2019-03-23T16:50:35.341Z,26.83
2019-03-23T16:53:02.500Z,26.97
2019-03-23T16:55:29.629Z,27.43
2019-03-23T16:57:56.852Z,27.37
2019-03-23T17:00:35.684Z,26.20
2019-03-23T17:03:03.673Z,27.30
2019-03-23T17:05:30.792Z,27.50
2019-03-23T17:07:57.973Z,28.17
2019-03-23T17:10:25.092Z,27.30
2019-03-23T17:12:55.476Z,26.47
2019-03-23T17:15:21.350Z,26.57
2019-03-23T17:17:48.752Z,25.70
2019-03-23T17:20:15.906Z,26.97
2019-03-23T17:22:43.112Z,26.97
2019-03-23T17:25:10.393Z,26.53
2019-03-23T17:27:37.542Z,27.47
2019-03-23T17:32:34.255Z,27.40
2019-03-23T17:35:01.417Z,26.00
2019-03-23T17:37:28.588Z,27.03
2019-03-23T17:39:56.178Z,29.17
2019-03-23T17:42:23.281Z,26.67
2019-03-23T17:44:50.659Z,26.23
2019-03-23T17:47:17.795Z,28.03
2019-03-23T17:49:44.976Z,30.90
2019-03-23T17:52:12.056Z,31.63
2019-03-23T17:54:39.236Z,31.00
2019-03-23T17:57:06.343Z,29.03
2019-03-23T17:59:33.504Z,29.50
2019-03-23T18:02:00.618Z,27.93
2019-03-23T18:04:28.016Z,28.53
2019-03-23T18:06:55.100Z,29.97
2019-03-23T18:09:22.218Z,29.17
2019-03-23T18:11:49.401Z,27.47
2019-03-23T18:14:16.663Z,27.80
2019-03-23T18:16:43.814Z,29.30
2019-03-23T18:21:37.803Z,28.43
2019-03-23T18:24:04.995Z,28.17
2019-03-23T18:26:32.223Z,29.00
2019-03-23T18:28:59.335Z,27.80
2019-03-23T18:31:26.575Z,28.73
2019-03-23T18:33:53.715Z,28.60
2019-03-23T18:36:20.935Z,29.33
2019-03-23T18:38:48.102Z,29.53
2019-03-23T18:41:15.249Z,29.70
2019-03-23T18:43:42.397Z,28.87
2019-03-23T18:46:09.624Z,30.17
2019-03-23T18:48:36.767Z,28.13
2019-03-23T18:51:03.959Z,28.43
2019-03-23T18:53:31.129Z,29.13
2019-03-23T18:55:58.652Z,29.27
2019-03-23T18:58:25.749Z,29.13
2019-03-23T19:00:53.025Z,30.17
2019-03-23T19:03:20.164Z,29.67
2019-03-23T19:08:15.740Z,31.43
2019-03-23T19:10:43.131Z,34.77
2019-03-23T19:13:10.364Z,36.90
2019-03-23T19:15:37.584Z,33.90
2019-03-23T19:18:05.804Z,32.50
2019-03-23T19:20:33.984Z,31.27
2019-03-23T19:23:01.083Z,31.60
2019-03-23T19:25:28.144Z,31.43
2019-03-23T19:27:55.324Z,32.53
2019-03-23T19:30:22.667Z,32.33
2019-03-23T19:32:49.802Z,33.53
2019-03-23T19:35:17.014Z,30.57
2019-03-23T19:37:44.167Z,33.10
2019-03-23T19:40:11.612Z,31.13
2019-03-23T19:42:38.791Z,32.13
2019-03-23T19:45:06.570Z,32.07
2019-03-23T19:47:33.766Z,32.10
2019-03-23T19:50:00.925Z,31.67
2019-03-23T19:52:28.124Z,31.73
2019-03-23T19:54:55.265Z,31.53
2019-03-23T19:57:22.528Z,32.27
2019-03-23T19:59:49.625Z,32.60
2019-03-23T20:02:16.727Z,33.27
2019-03-23T20:04:43.822Z,32.90
2019-03-23T20:07:11.011Z,32.33
2019-03-23T20:09:38.082Z,31.80
2019-03-23T20:14:52.418Z,31.53
2019-03-23T20:17:19.698Z,33.47
2019-03-23T20:19:47.019Z,34.47
2019-03-23T20:22:14.145Z,33.07
2019-03-23T20:24:41.286Z,34.80
2019-03-23T20:27:08.507Z,35.60
2019-03-23T20:29:35.639Z,35.53
2019-03-23T20:32:02.900Z,34.63
2019-03-23T20:34:29.980Z,35.90
2019-03-23T20:36:57.149Z,34.77
2019-03-23T20:39:24.287Z,36.00
2019-03-23T20:41:51.404Z,35.63
2019-03-23T20:44:18.559Z,35.43
2019-03-23T20:46:45.713Z,35.53
2019-03-23T20:49:13.303Z,34.73
2019-03-23T20:51:40.960Z,34.57
2019-03-23T20:54:08.156Z,36.63
2019-03-23T20:56:35.301Z,36.67
2019-03-23T20:59:02.518Z,37.20
2019-03-23T21:01:29.819Z,36.77
2019-03-23T21:03:57.019Z,37.07
2019-03-23T21:06:24.234Z,37.57
2019-03-23T21:08:51.438Z,39.13
2019-03-23T21:11:18.539Z,37.90
2019-03-23T21:13:45.759Z,37.70
2019-03-23T21:16:13.603Z,37.87
2019-03-23T21:18:40.818Z,37.57
2019-03-23T21:21:08.138Z,39.10
2019-03-23T21:23:35.378Z,37.83
2019-03-23T21:26:02.900Z,37.47
2019-03-23T21:28:30.532Z,37.90
2019-03-23T21:30:58.000Z,37.90
2019-03-23T21:33:31.759Z,38.97
2019-03-23T21:35:54.318Z,38.90
2019-03-23T21:38:21.510Z,40.03
2019-03-23T21:40:48.685Z,39.30
2019-03-23T21:43:16.558Z,38.20
2019-03-23T21:45:43.756Z,39.73
2019-03-23T21:48:10.862Z,36.27
2019-03-23T21:50:47.025Z,38.93
2019-03-23T21:53:07.121Z,38.17
2019-03-23T21:55:34.362Z,39.47
2019-03-23T21:58:01.746Z,39.60
2019-03-23T22:00:31.824Z,37.40
2019-03-23T22:02:59.543Z,38.50
2019-03-23T22:05:51.703Z,39.27
2019-03-23T22:08:18.841Z,37.77
2019-03-23T22:10:46.460Z,39.50
2019-03-23T22:13:13.622Z,39.77
2019-03-23T22:15:40.848Z,40.07
2019-03-23T22:18:08.361Z,41.63
2019-03-23T22:20:35.603Z,39.37
2019-03-23T22:23:02.731Z,33.77
2019-03-23T22:25:29.961Z,38.27
2019-03-23T22:27:57.135Z,40.57
2019-03-23T22:30:24.343Z,38.80
2019-03-23T22:32:51.467Z,39.43
2019-03-23T22:35:18.642Z,38.50
2019-03-23T22:37:45.761Z,42.07
2019-03-23T22:40:13.124Z,43.63
2019-03-23T22:42:40.301Z,41.57
2019-03-23T22:45:08.204Z,42.97
2019-03-23T22:47:35.561Z,44.07
2019-03-23T22:50:07.222Z,43.63
2019-03-23T22:52:34.521Z,40.10
2019-03-23T22:55:01.841Z,40.97
2019-03-23T22:57:29.289Z,41.93
2019-03-23T22:59:56.461Z,43.43
2019-03-23T23:02:23.621Z,41.17
2019-03-23T23:04:51.281Z,42.33
2019-03-23T23:07:18.481Z,41.83
2019-03-23T23:10:06.702Z,41.57
2019-03-23T23:12:34.262Z,40.73
2019-03-23T23:15:04.767Z,42.57
2019-03-23T23:17:30.682Z,43.70
2019-03-23T23:19:57.862Z,41.63
2019-03-23T23:22:25.101Z,44.33
2019-03-23T23:24:52.261Z,43.07
2019-03-23T23:27:19.501Z,42.73
2019-03-23T23:29:47.002Z,42.40
2019-03-23T23:32:14.166Z,43.67
2019-03-23T23:34:41.240Z,41.83
2019-03-23T23:37:08.461Z,43.90
2019-03-23T23:39:35.601Z,44.60
2019-03-23T23:42:02.722Z,46.03
2019-03-23T23:44:29.841Z,44.77
2019-03-23T23:46:57.042Z,41.20
2019-03-23T23:49:24.261Z,40.33
2019-03-23T23:51:51.418Z,41.83
2019-03-23T23:54:18.581Z,40.97
2019-03-23T23:56:45.907Z,40.87
2019-03-23T23:59:13.161Z,42.47
